Thursday, January 17, 2019, 8:43 PM EST
Back to Local

KTHV, York Airport

Location: Spring Grove, PA, United States Lat: 39.917
Local Time: 8:43 PM EST ( 1:43 GMT) Lon: -76.883
Time Zone: US/Eastern Elev: 478 ft

Show me the last for .
Show Coded

Time T Td Feel RH Dir Speed Gust Alt SLP Vis Weather Sky Remarks
2019-01-17 20:04 27 26 22 96 100° 5 - 30.21 - 3 -SN BR SCT031 OVC050 1-hr Precip Total: Trace
2019-01-17 19:53 27 26 22 96 120° 5 - 30.21 30.24 2 -SN BR BKN033 OVC050 1-hr Precip Total: Trace
2019-01-17 19:31 27 26 20 96 100° 6 - 30.21 - 2 -SN BR BKN031 OVC055 1-hr Precip Total: Trace
2019-01-17 19:22 27 26 22 96 110° 5 - 30.21 - 1 -SN BR OVC027 1-hr Precip Total: Trace
2019-01-17 19:11 27 26 22 96 100° 5 - 30.22 - 1 -SN BR FEW004 OVC016 1-hr Precip Total: Trace
2019-01-17 18:53 27 26 22 96 120° 5 - 30.23 30.25 1 -SN BR VV012 1-hr Precip Total: Trace
6-hr Precip Total (7pm): 0.00"
6-hr Min Temp (7pm): 27.0°F
6-hr Max Temp (7pm): 30.9°F
2019-01-17 18:50 27 27 21 100 120° 5 - 30.23 - 0 -SN BR VV011 1-hr Precip Total: Trace
2019-01-17 18:40 27 26 22 96 110° 5 - 30.23 - 0 SN FZFG VV009 1-hr Precip Total: Trace
2019-01-17 18:19 28 26 24 92 120° 3 - 30.24 - 0 -SN BR VV012 1-hr Precip Total: Trace
2019-01-17 18:10 28 25 21 88 140° 7 - 30.24 - 1 -SN BR VV015 1-hr Precip Total: Trace
2019-01-17 17:56 29 24 22 81 160° 7 - 30.24 - 1 -SN OVC021 1-hr Precip Total: Trace
2019-01-17 17:53 29 24 21 81 150° 8 - 30.24 30.26 2 -SN OVC023 1-hr Precip Total: Trace
2019-01-17 17:42 31 22 23 68 140° 8 - 30.23 - 5 -SN BKN023 OVC041 1-hr Precip Total: Trace
2019-01-17 16:53 31 20 25 63 140° 6 - 30.23 30.26 10 OVC040 None
2019-01-17 15:53 31 21 26 66 110° 5 - 30.24 30.27 10 OVC038 None
2019-01-17 14:53 31 20 24 63 100° 7 - 30.25 30.27 10 OVC036 None
2019-01-17 13:53 31 20 25 63 120° 6 - 30.26 30.28 10 OVC039 None
2019-01-17 12:53 30 19 25 63 110° 5 - 30.30 30.32 10 OVC041 6-hr Min Temp (1pm): 28.0°F
6-hr Max Temp (1pm): 30.9°F
2019-01-17 11:53 30 19 26 63 110° 3 - 30.34 30.36 10 OVC042 None
2019-01-17 10:53 29 18 21 63 90° 8 - 30.37 30.39 10 OVC041 None
2019-01-17 09:53 29 18 22 63 70° 7 - 30.36 30.39 10 OVC044 None
2019-01-17 08:53 28 18 22 65 60° 6 - 30.36 30.38 10 OVC045 None
2019-01-17 07:53 28 17 21 62 70° 7 - 30.35 30.37 10 OVC044 None
2019-01-17 06:53 28 18 21 65 60° 7 - 30.34 30.36 10 OVC045 6-hr Min Temp (7am): 25.0°F
6-hr Max Temp (7am): 35.1°F
2019-01-17 05:53 28 18 - 65 - Calm - 30.32 30.34 10 CLR None
2019-01-17 04:53 27 21 - 77 - Calm - 30.31 30.33 10 CLR None
2019-01-17 03:53 27 20 - 74 - Calm - 30.30 30.32 10 CLR None
2019-01-17 02:53 31 19 26 60 10° 5 - 30.30 30.32 10 CLR None
2019-01-17 01:53 33 21 - 60 - Calm - 30.29 30.30 10 OVC046 None
2019-01-17 00:53 35 23 29 61 330° 7 - 30.26 30.28 10 OVC044 6-hr Min Temp (1am): 34.0°F
6-hr Max Temp (1am): 36.0°F
2019-01-16 23:53 34 24 31 66 260° 3 - 30.27 30.29 10 OVC043 24-hr Min Temp (12am): 16.0°F
24-hr Max Temp (12am): 37.0°F
2019-01-16 22:53 35 24 32 63 280° 3 - 30.26 30.28 10 OVC043 None
2019-01-16 21:53 35 24 31 63 280° 5 - 30.24 30.26 10 OVC043 None
2019-01-16 20:53 35 24 29 63 280° 7 - 30.23 30.25 10 OVC044 None

Support USWX by starting your Amazon purchase here.